sensor_id;sensor_type;location;lat;lon;timestamp;pressure;altitude;pressure_sealevel;temperature;humidity
13420;BME280;6781;58.440;15.470;2023-09-18T00:00:10;103102.75;;;7.71;100.00
13420;BME280;6781;58.440;15.470;2023-09-18T00:02:38;103127.41;;;7.83;100.00
13420;BME280;6781;58.440;15.470;2023-09-18T00:05:06;102894.59;;;6.37;100.00
13420;BME280;6781;58.440;15.470;2023-09-18T00:07:34;103137.16;;;7.73;100.00
13420;BME280;6781;58.440;15.470;2023-09-18T00:10:02;103147.03;;;7.90;100.00
13420;BME280;6781;58.440;15.470;2023-09-18T00:12:29;103123.56;;;7.65;100.00
13420;BME280;6781;58.440;15.470;2023-09-18T00:14:56;103121.47;;;7.79;100.00
13420;BME280;6781;58.440;15.470;2023-09-18T00:17:23;103148.97;;;7.82;100.00
13420;BME280;6781;58.440;15.470;2023-09-18T00:19:50;103021.56;;;7.16;100.00
13420;BME280;6781;58.440;15.470;2023-09-18T00:22:19;103147.97;;;7.88;100.00
13420;BME280;6781;58.440;15.470;2023-09-18T00:24:48;103145.22;;;7.94;100.00
13420;BME280;6781;58.440;15.470;2023-09-18T00:27:14;102942.38;;;6.86;100.00
13420;BME280;6781;58.440;15.470;2023-09-18T00:29:42;102870.50;;;6.38;100.00
13420;BME280;6781;58.440;15.470;2023-09-18T00:32:09;103141.75;;;7.95;100.00
13420;BME280;6781;58.440;15.470;2023-09-18T00:34:36;103054.88;;;7.58;100.00
13420;BME280;6781;58.440;15.470;2023-09-18T00:37:03;103039.41;;;7.58;100.00
13420;BME280;6781;58.440;15.470;2023-09-18T00:39:30;103126.00;;;8.04;100.00
13420;BME280;6781;58.440;15.470;2023-09-18T00:41:58;103016.28;;;7.54;100.00
13420;BME280;6781;58.440;15.470;2023-09-18T00:44:25;102854.34;;;6.66;100.00
13420;BME280;6781;58.440;15.470;2023-09-18T00:46:53;103004.19;;;7.56;100.00
13420;BME280;6781;58.440;15.470;2023-09-18T00:49:22;103096.25;;;8.20;100.00
13420;BME280;6781;58.440;15.470;2023-09-18T00:51:51;102998.06;;;7.58;100.00
13420;BME280;6781;58.440;15.470;2023-09-18T00:54:19;103130.03;;;8.14;100.00
13420;BME280;6781;58.440;15.470;2023-09-18T00:56:46;102941.34;;;6.93;100.00
13420;BME280;6781;58.440;15.470;2023-09-18T00:59:20;102891.75;;;6.82;100.00
13420;BME280;6781;58.440;15.470;2023-09-18T01:01:48;103069.97;;;7.73;100.00
13420;BME280;6781;58.440;15.470;2023-09-18T01:04:17;103108.31;;;7.89;100.00
13420;BME280;6781;58.440;15.470;2023-09-18T01:06:43;103123.09;;;7.83;100.00
13420;BME280;6781;58.440;15.470;2023-09-18T01:09:10;103141.28;;;7.80;100.00
13420;BME280;6781;58.440;15.470;2023-09-18T01:11:50;103189.81;;;8.02;100.00
13420;BME280;6781;58.440;15.470;2023-09-18T01:14:29;103097.41;;;7.45;100.00
13420;BME280;6781;58.440;15.470;2023-09-18T01:17:00;103208.75;;;8.02;100.00
13420;BME280;6781;58.440;15.470;2023-09-18T01:19:41;103234.94;;;8.23;100.00
13420;BME280;6781;58.440;15.470;2023-09-18T01:22:10;103263.41;;;8.21;100.00
13420;BME280;6781;58.440;15.470;2023-09-18T01:24:39;103084.66;;;7.03;100.00
13420;BME280;6781;58.440;15.470;2023-09-18T01:27:09;103289.50;;;8.12;100.00
13420;BME280;6781;58.440;15.470;2023-09-18T01:29:38;103249.03;;;7.75;100.00
13420;BME280;6781;58.440;15.470;2023-09-18T01:32:05;103309.53;;;8.02;100.00
13420;BME280;6781;58.440;15.470;2023-09-18T01:34:34;103218.97;;;7.36;100.00
13420;BME280;6781;58.440;15.470;2023-09-18T01:37:03;103316.69;;;7.91;100.00
13420;BME280;6781;58.440;15.470;2023-09-18T01:39:33;103313.56;;;7.78;100.00
13420;BME280;6781;58.440;15.470;2023-09-18T01:42:04;103320.53;;;7.75;100.00
13420;BME280;6781;58.440;15.470;2023-09-18T01:44:32;103321.63;;;7.65;100.00
13420;BME280;6781;58.440;15.470;2023-09-18T01:47:01;103298.00;;;7.43;100.00
13420;BME280;6781;58.440;15.470;2023-09-18T01:49:30;103335.09;;;7.77;100.00
13420;BME280;6781;58.440;15.470;2023-09-18T01:51:57;103266.44;;;7.30;100.00
13420;BME280;6781;58.440;15.470;2023-09-18T01:54:24;103159.81;;;6.49;100.00
13420;BME280;6781;58.440;15.470;2023-09-18T01:56:51;103327.94;;;7.51;100.00
13420;BME280;6781;58.440;15.470;2023-09-18T01:59:20;103254.47;;;6.88;100.00
13420;BME280;6781;58.440;15.470;2023-09-18T02:04:23;103350.03;;;7.65;100.00
13420;BME280;6781;58.440;15.470;2023-09-18T02:06:51;103357.69;;;7.69;100.00
13420;BME280;6781;58.440;15.470;2023-09-18T02:09:18;103343.94;;;7.67;100.00
13420;BME280;6781;58.440;15.470;2023-09-18T02:11:46;103343.88;;;7.70;100.00
13420;BME280;6781;58.440;15.470;2023-09-18T02:14:14;103208.09;;;6.84;100.00
13420;BME280;6781;58.440;15.470;2023-09-18T02:16:42;103333.28;;;7.42;100.00
13420;BME280;6781;58.440;15.470;2023-09-18T02:19:11;103364.16;;;7.48;100.00
13420;BME280;6781;58.440;15.470;2023-09-18T02:21:38;103337.16;;;7.22;100.00
13420;BME280;6781;58.440;15.470;2023-09-18T02:24:06;103344.72;;;7.31;100.00
13420;BME280;6781;58.440;15.470;2023-09-18T02:26:34;103254.53;;;6.83;100.00
13420;BME280;6781;58.440;15.470;2023-09-18T02:29:05;103342.34;;;7.20;100.00
13420;BME280;6781;58.440;15.470;2023-09-18T02:31:32;103363.44;;;7.42;100.00
13420;BME280;6781;58.440;15.470;2023-09-18T02:34:00;103398.28;;;7.63;100.00
13420;BME280;6781;58.440;15.470;2023-09-18T02:36:27;103282.50;;;7.03;100.00
13420;BME280;6781;58.440;15.470;2023-09-18T02:38:54;103263.84;;;6.92;100.00
13420;BME280;6781;58.440;15.470;2023-09-18T02:41:21;103376.91;;;7.56;100.00
13420;BME280;6781;58.440;15.470;2023-09-18T02:43:48;103354.59;;;7.52;100.00
13420;BME280;6781;58.440;15.470;2023-09-18T02:46:15;103183.06;;;6.46;100.00
13420;BME280;6781;58.440;15.470;2023-09-18T02:48:42;103239.44;;;6.65;100.00
13420;BME280;6781;58.440;15.470;2023-09-18T02:51:11;103389.81;;;7.56;100.00
13420;BME280;6781;58.440;15.470;2023-09-18T02:53:38;103414.88;;;7.51;100.00
13420;BME280;6781;58.440;15.470;2023-09-18T02:56:05;103378.44;;;7.23;100.00
13420;BME280;6781;58.440;15.470;2023-09-18T02:58:32;103429.38;;;7.58;100.00
13420;BME280;6781;58.440;15.470;2023-09-18T03:00:59;103262.94;;;6.49;100.00
13420;BME280;6781;58.440;15.470;2023-09-18T03:03:28;103445.03;;;7.50;100.00
13420;BME280;6781;58.440;15.470;2023-09-18T03:06:00;103357.28;;;7.04;100.00
13420;BME280;6781;58.440;15.470;2023-09-18T03:08:30;103478.44;;;7.58;100.00
13420;BME280;6781;58.440;15.470;2023-09-18T03:10:57;103352.31;;;6.95;100.00
13420;BME280;6781;58.440;15.470;2023-09-18T03:13:26;103318.22;;;6.81;100.00
13420;BME280;6781;58.440;15.470;2023-09-18T03:15:53;103406.13;;;7.15;100.00
13420;BME280;6781;58.440;15.470;2023-09-18T03:18:21;103439.41;;;7.29;100.00
13420;BME280;6781;58.440;15.470;2023-09-18T03:20:47;103425.69;;;7.27;100.00
13420;BME280;6781;58.440;15.470;2023-09-18T03:23:14;103300.66;;;6.55;100.00
13420;BME280;6781;58.440;15.470;2023-09-18T03:25:43;103404.66;;;7.02;100.00
13420;BME280;6781;58.440;15.470;2023-09-18T03:28:10;103460.72;;;7.40;100.00
13420;BME280;6781;58.440;15.470;2023-09-18T03:30:37;103395.25;;;6.99;100.00
13420;BME280;6781;58.440;15.470;2023-09-18T03:33:04;103505.81;;;7.68;100.00
13420;BME280;6781;58.440;15.470;2023-09-18T03:35:31;103528.78;;;7.82;100.00
13420;BME280;6781;58.440;15.470;2023-09-18T03:37:58;103427.69;;;7.12;100.00
13420;BME280;6781;58.440;15.470;2023-09-18T03:40:26;103602.53;;;7.98;100.00
13420;BME280;6781;58.440;15.470;2023-09-18T03:42:54;103599.09;;;7.99;100.00
13420;BME280;6781;58.440;15.470;2023-09-18T03:45:22;103632.59;;;8.04;100.00
13420;BME280;6781;58.440;15.470;2023-09-18T03:47:48;103648.75;;;8.15;100.00
13420;BME280;6781;58.440;15.470;2023-09-18T03:50:16;103673.66;;;8.19;100.00
13420;BME280;6781;58.440;15.470;2023-09-18T03:52:43;103622.25;;;8.04;100.00
13420;BME280;6781;58.440;15.470;2023-09-18T03:55:11;103631.66;;;8.08;100.00
13420;BME280;6781;58.440;15.470;2023-09-18T03:57:39;103571.38;;;7.61;100.00
13420;BME280;6781;58.440;15.470;2023-09-18T04:00:08;103649.75;;;8.08;100.00
13420;BME280;6781;58.440;15.470;2023-09-18T04:02:38;103682.94;;;8.31;100.00
13420;BME280;6781;58.440;15.470;2023-09-18T04:05:06;103688.91;;;8.34;100.00
13420;BME280;6781;58.440;15.470;2023-09-18T04:07:33;103630.94;;;8.00;100.00
13420;BME280;6781;58.440;15.470;2023-09-18T04:10:00;103718.06;;;8.42;100.00
13420;BME280;6781;58.440;15.470;2023-09-18T04:12:28;103562.25;;;7.42;100.00
13420;BME280;6781;58.440;15.470;2023-09-18T04:14:55;103585.72;;;7.28;100.00
13420;BME280;6781;58.440;15.470;2023-09-18T04:17:23;103728.19;;;8.07;100.00
13420;BME280;6781;58.440;15.470;2023-09-18T04:19:50;103590.97;;;7.24;100.00
13420;BME280;6781;58.440;15.470;2023-09-18T04:22:17;103777.78;;;8.29;100.00
13420;BME280;6781;58.440;15.470;2023-09-18T04:24:44;103750.66;;;8.02;100.00
13420;BME280;6781;58.440;15.470;2023-09-18T04:27:11;103785.81;;;8.12;100.00
13420;BME280;6781;58.440;15.470;2023-09-18T04:29:38;103774.88;;;7.96;100.00
13420;BME280;6781;58.440;15.470;2023-09-18T04:32:06;103750.09;;;7.84;100.00
13420;BME280;6781;58.440;15.470;2023-09-18T04:34:34;103782.41;;;8.10;100.00
13420;BME280;6781;58.440;15.470;2023-09-18T04:37:01;103670.81;;;7.34;100.00
13420;BME280;6781;58.440;15.470;2023-09-18T04:39:29;103766.56;;;7.77;100.00
13420;BME280;6781;58.440;15.470;2023-09-18T04:42:01;103786.28;;;7.84;100.00
13420;BME280;6781;58.440;15.470;2023-09-18T04:44:30;103661.84;;;7.01;100.00
13420;BME280;6781;58.440;15.470;2023-09-18T04:46:57;103777.09;;;7.65;100.00
13420;BME280;6781;58.440;15.470;2023-09-18T04:49:25;103832.56;;;8.00;100.00
13420;BME280;6781;58.440;15.470;2023-09-18T04:51:54;103842.06;;;7.98;100.00
13420;BME280;6781;58.440;15.470;2023-09-18T04:54:21;103672.16;;;7.01;100.00
13420;BME280;6781;58.440;15.470;2023-09-18T04:56:49;103830.81;;;8.02;100.00
13420;BME280;6781;58.440;15.470;2023-09-18T04:59:16;103839.38;;;8.04;100.00
13420;BME280;6781;58.440;15.470;2023-09-18T05:01:43;103711.44;;;7.23;100.00
13420;BME280;6781;58.440;15.470;2023-09-18T05:04:12;103861.88;;;7.99;100.00
13420;BME280;6781;58.440;15.470;2023-09-18T05:06:40;103672.38;;;6.89;100.00
13420;BME280;6781;58.440;15.470;2023-09-18T05:09:09;103905.66;;;8.09;100.00
13420;BME280;6781;58.440;15.470;2023-09-18T05:11:38;103784.47;;;7.31;100.00
13420;BME280;6781;58.440;15.470;2023-09-18T05:14:07;103916.03;;;8.08;100.00
13420;BME280;6781;58.440;15.470;2023-09-18T05:16:34;103923.81;;;8.05;100.00
13420;BME280;6781;58.440;15.470;2023-09-18T05:19:01;103829.09;;;7.41;100.00
13420;BME280;6781;58.440;15.470;2023-09-18T05:21:28;103926.66;;;7.87;100.00
13420;BME280;6781;58.440;15.470;2023-09-18T05:23:55;103879.66;;;7.59;100.00
13420;BME280;6781;58.440;15.470;2023-09-18T05:26:25;103889.84;;;7.69;100.00
13420;BME280;6781;58.440;15.470;2023-09-18T05:28:54;103910.41;;;7.78;100.00
13420;BME280;6781;58.440;15.470;2023-09-18T05:31:21;103732.81;;;6.70;100.00
13420;BME280;6781;58.440;15.470;2023-09-18T05:33:49;103797.81;;;6.96;100.00
13420;BME280;6781;58.440;15.470;2023-09-18T05:36:17;103808.06;;;7.02;100.00
13420;BME280;6781;58.440;15.470;2023-09-18T05:38:44;103720.94;;;6.53;100.00
13420;BME280;6781;58.440;15.470;2023-09-18T05:41:11;103914.81;;;7.70;100.00
13420;BME280;6781;58.440;15.470;2023-09-18T05:43:39;103978.97;;;8.04;100.00
13420;BME280;6781;58.440;15.470;2023-09-18T05:46:06;103991.66;;;8.22;100.00
13420;BME280;6781;58.440;15.470;2023-09-18T05:48:33;103939.50;;;7.93;100.00
13420;BME280;6781;58.440;15.470;2023-09-18T05:51:03;103930.19;;;7.81;100.00
13420;BME280;6781;58.440;15.470;2023-09-18T05:53:30;103964.25;;;8.10;100.00
13420;BME280;6781;58.440;15.470;2023-09-18T05:55:56;103764.16;;;7.04;100.00
13420;BME280;6781;58.440;15.470;2023-09-18T05:58:29;103920.56;;;7.91;100.00
13420;BME280;6781;58.440;15.470;2023-09-18T06:00:58;103992.34;;;8.36;100.00
13420;BME280;6781;58.440;15.470;2023-09-18T06:03:26;103976.03;;;8.33;100.00
13420;BME280;6781;58.440;15.470;2023-09-18T06:05:55;103925.56;;;8.03;100.00
13420;BME280;6781;58.440;15.470;2023-09-18T06:08:22;103889.78;;;7.75;100.00
13420;BME280;6781;58.440;15.470;2023-09-18T06:10:51;104016.16;;;8.60;100.00
13420;BME280;6781;58.440;15.470;2023-09-18T06:13:19;104032.28;;;8.75;100.00
13420;BME280;6781;58.440;15.470;2023-09-18T06:15:46;104040.84;;;8.79;100.00
13420;BME280;6781;58.440;15.470;2023-09-18T06:18:15;103858.63;;;7.84;100.00
13420;BME280;6781;58.440;15.470;2023-09-18T06:20:42;104076.53;;;9.14;100.00
13420;BME280;6781;58.440;15.470;2023-09-18T06:23:10;104039.78;;;8.92;100.00
13420;BME280;6781;58.440;15.470;2023-09-18T06:25:37;103976.47;;;8.61;100.00
13420;BME280;6781;58.440;15.470;2023-09-18T06:28:04;103983.16;;;8.71;100.00
13420;BME280;6781;58.440;15.470;2023-09-18T06:30:32;104039.59;;;9.03;100.00
13420;BME280;6781;58.440;15.470;2023-09-18T06:33:00;103896.94;;;8.15;100.00
13420;BME280;6781;58.440;15.470;2023-09-18T06:35:29;104066.66;;;9.36;100.00
13420;BME280;6781;58.440;15.470;2023-09-18T06:37:56;104028.94;;;9.21;100.00
13420;BME280;6781;58.440;15.470;2023-09-18T06:40:24;104057.78;;;9.49;100.00
13420;BME280;6781;58.440;15.470;2023-09-18T06:42:51;104051.63;;;9.55;100.00
13420;BME280;6781;58.440;15.470;2023-09-18T06:45:25;103873.00;;;8.59;100.00
13420;BME280;6781;58.440;15.470;2023-09-18T06:47:51;103927.56;;;8.93;100.00
13420;BME280;6781;58.440;15.470;2023-09-18T06:50:19;104059.94;;;9.72;100.00
13420;BME280;6781;58.440;15.470;2023-09-18T06:52:47;103988.16;;;9.31;100.00
13420;BME280;6781;58.440;15.470;2023-09-18T06:55:15;103976.50;;;9.53;100.00
13420;BME280;6781;58.440;15.470;2023-09-18T06:57:42;104054.94;;;10.07;100.00
13420;BME280;6781;58.440;15.470;2023-09-18T07:00:10;104056.47;;;10.16;100.00
13420;BME280;6781;58.440;15.470;2023-09-18T07:02:40;103960.66;;;9.68;100.00
13420;BME280;6781;58.440;15.470;2023-09-18T07:05:07;104045.88;;;10.28;100.00
13420;BME280;6781;58.440;15.470;2023-09-18T07:07:34;104033.72;;;10.30;100.00
13420;BME280;6781;58.440;15.470;2023-09-18T07:10:02;104008.00;;;10.18;100.00
13420;BME280;6781;58.440;15.470;2023-09-18T07:12:33;103822.50;;;9.25;100.00
13420;BME280;6781;58.440;15.470;2023-09-18T07:15:00;103988.72;;;10.31;100.00
13420;BME280;6781;58.440;15.470;2023-09-18T07:17:29;104000.53;;;10.43;100.00
13420;BME280;6781;58.440;15.470;2023-09-18T07:19:56;104005.31;;;10.60;100.00
13420;BME280;6781;58.440;15.470;2023-09-18T07:22:23;104013.72;;;10.71;100.00
13420;BME280;6781;58.440;15.470;2023-09-18T07:24:50;103885.19;;;10.19;100.00
13420;BME280;6781;58.440;15.470;2023-09-18T07:27:19;103942.31;;;10.53;100.00
13420;BME280;6781;58.440;15.470;2023-09-18T07:29:45;103829.91;;;10.17;100.00
13420;BME280;6781;58.440;15.470;2023-09-18T07:32:12;103971.09;;;11.12;100.00
13420;BME280;6781;58.440;15.470;2023-09-18T07:34:40;103974.06;;;11.31;100.00
13420;BME280;6781;58.440;15.470;2023-09-18T07:37:07;103956.50;;;11.08;100.00
13420;BME280;6781;58.440;15.470;2023-09-18T07:39:34;103954.22;;;11.28;100.00
13420;BME280;6781;58.440;15.470;2023-09-18T07:42:02;103888.91;;;11.09;100.00
13420;BME280;6781;58.440;15.470;2023-09-18T07:44:30;103955.47;;;11.76;100.00
13420;BME280;6781;58.440;15.470;2023-09-18T07:46:58;103903.63;;;11.69;100.00
13420;BME280;6781;58.440;15.470;2023-09-18T07:49:27;103945.31;;;12.24;100.00
13420;BME280;6781;58.440;15.470;2023-09-18T07:51:54;103853.81;;;12.11;100.00
13420;BME280;6781;58.440;15.470;2023-09-18T07:54:23;103894.84;;;12.54;100.00
13420;BME280;6781;58.440;15.470;2023-09-18T07:56:50;103881.16;;;12.74;100.00
13420;BME280;6781;58.440;15.470;2023-09-18T07:59:17;103832.88;;;12.64;100.00
13420;BME280;6781;58.440;15.470;2023-09-18T08:01:46;103775.09;;;12.78;100.00
13420;BME280;6781;58.440;15.470;2023-09-18T08:04:13;103715.91;;;12.58;100.00
13420;BME280;6781;58.440;15.470;2023-09-18T08:06:40;103700.47;;;12.98;100.00
13420;BME280;6781;58.440;15.470;2023-09-18T08:09:07;103693.16;;;13.30;100.00
13420;BME280;6781;58.440;15.470;2023-09-18T08:11:41;103635.28;;;13.22;100.00
13420;BME280;6781;58.440;15.470;2023-09-18T08:14:08;103638.50;;;13.69;100.00
13420;BME280;6781;58.440;15.470;2023-09-18T08:16:35;103608.63;;;13.76;100.00
13420;BME280;6781;58.440;15.470;2023-09-18T08:19:04;103539.81;;;13.79;100.00
13420;BME280;6781;58.440;15.470;2023-09-18T08:21:32;103509.75;;;13.89;100.00
13420;BME280;6781;58.440;15.470;2023-09-18T08:23:59;103423.31;;;13.78;100.00
13420;BME280;6781;58.440;15.470;2023-09-18T08:26:26;103418.31;;;14.09;100.00
13420;BME280;6781;58.440;15.470;2023-09-18T08:28:53;103379.47;;;14.20;100.00
13420;BME280;6781;58.440;15.470;2023-09-18T08:31:21;103307.06;;;14.24;100.00
13420;BME280;6781;58.440;15.470;2023-09-18T08:33:49;103249.72;;;14.22;100.00
13420;BME280;6781;58.440;15.470;2023-09-18T08:36:18;103132.50;;;14.33;100.00
13420;BME280;6781;58.440;15.470;2023-09-18T08:38:47;102980.16;;;14.03;100.00
13420;BME280;6781;58.440;15.470;2023-09-18T08:41:18;102972.31;;;14.50;100.00
13420;BME280;6781;58.440;15.470;2023-09-18T08:43:47;102733.34;;;13.39;100.00
13420;BME280;6781;58.440;15.470;2023-09-18T08:46:16;102798.34;;;14.48;100.00
13420;BME280;6781;58.440;15.470;2023-09-18T08:48:44;102737.72;;;14.71;100.00
13420;BME280;6781;58.440;15.470;2023-09-18T08:51:12;102622.25;;;14.52;100.00
13420;BME280;6781;58.440;15.470;2023-09-18T08:53:44;102431.06;;;13.93;100.00
13420;BME280;6781;58.440;15.470;2023-09-18T08:56:39;102411.47;;;14.67;100.00
13420;BME280;6781;58.440;15.470;2023-09-18T08:59:06;102355.69;;;14.80;100.00
13420;BME280;6781;58.440;15.470;2023-09-18T09:01:33;102333.13;;;15.41;100.00
13420;BME280;6781;58.440;15.470;2023-09-18T09:04:00;102152.72;;;14.93;100.00
13420;BME280;6781;58.440;15.470;2023-09-18T09:06:27;102198.28;;;15.61;100.00
13420;BME280;6781;58.440;15.470;2023-09-18T09:08:55;102113.25;;;15.55;100.00
13420;BME280;6781;58.440;15.470;2023-09-18T09:11:23;101989.97;;;15.26;100.00
13420;BME280;6781;58.440;15.470;2023-09-18T09:14:08;101945.16;;;15.65;100.00
13420;BME280;6781;58.440;15.470;2023-09-18T09:16:38;101746.31;;;14.78;100.00
13420;BME280;6781;58.440;15.470;2023-09-18T09:19:06;101842.88;;;15.79;100.00
13420;BME280;6781;58.440;15.470;2023-09-18T09:21:40;101768.94;;;15.66;100.00
13420;BME280;6781;58.440;15.470;2023-09-18T09:24:10;101718.72;;;15.51;100.00
13420;BME280;6781;58.440;15.470;2023-09-18T09:26:40;101583.50;;;15.21;100.00
13420;BME280;6781;58.440;15.470;2023-09-18T09:29:18;101621.63;;;15.65;100.00
13420;BME280;6781;58.440;15.470;2023-09-18T09:31:45;101541.94;;;15.39;100.00
13420;BME280;6781;58.440;15.470;2023-09-18T09:34:24;101484.81;;;15.34;100.00
13420;BME280;6781;58.440;15.470;2023-09-18T09:36:52;101501.38;;;15.44;100.00
13420;BME280;6781;58.440;15.470;2023-09-18T09:39:21;101371.88;;;14.79;100.00
13420;BME280;6781;58.440;15.470;2023-09-18T09:41:51;101398.78;;;15.31;100.00
13420;BME280;6781;58.440;15.470;2023-09-18T09:44:18;101394.56;;;15.40;100.00
13420;BME280;6781;58.440;15.470;2023-09-18T09:46:49;101322.38;;;15.08;100.00
13420;BME280;6781;58.440;15.470;2023-09-18T09:49:17;101277.97;;;15.18;100.00
13420;BME280;6781;58.440;15.470;2023-09-18T09:51:45;101241.66;;;15.15;100.00
13420;BME280;6781;58.440;15.470;2023-09-18T09:54:12;101327.75;;;15.76;100.00
13420;BME280;6781;58.440;15.470;2023-09-18T09:56:45;101281.38;;;15.58;100.00
13420;BME280;6781;58.440;15.470;2023-09-18T09:59:14;101187.44;;;14.97;100.00
13420;BME280;6781;58.440;15.470;2023-09-18T10:01:43;101291.00;;;15.97;100.00
13420;BME280;6781;58.440;15.470;2023-09-18T10:04:16;101280.50;;;16.25;100.00
13420;BME280;6781;58.440;15.470;2023-09-18T10:06:44;101263.94;;;16.35;100.00
13420;BME280;6781;58.440;15.470;2023-09-18T10:09:13;101147.97;;;15.78;100.00
13420;BME280;6781;58.440;15.470;2023-09-18T10:11:43;101191.31;;;15.90;100.00
13420;BME280;6781;58.440;15.470;2023-09-18T10:14:16;101196.28;;;15.74;100.00
13420;BME280;6781;58.440;15.470;2023-09-18T10:16:49;101087.75;;;15.12;100.00
13420;BME280;6781;58.440;15.470;2023-09-18T10:19:21;101176.88;;;15.76;100.00
13420;BME280;6781;58.440;15.470;2023-09-18T10:22:01;101205.34;;;15.89;100.00
13420;BME280;6781;58.440;15.470;2023-09-18T10:24:37;101188.28;;;15.85;100.00
13420;BME280;6781;58.440;15.470;2023-09-18T10:27:05;101196.81;;;15.87;100.00
13420;BME280;6781;58.440;15.470;2023-09-18T10:29:36;101194.34;;;15.85;100.00
13420;BME280;6781;58.440;15.470;2023-09-18T10:32:05;101112.34;;;15.48;100.00
13420;BME280;6781;58.440;15.470;2023-09-18T10:34:33;101161.81;;;15.98;100.00
13420;BME280;6781;58.440;15.470;2023-09-18T10:37:02;101191.84;;;16.40;100.00
13420;BME280;6781;58.440;15.470;2023-09-18T10:39:34;101003.94;;;15.42;100.00
13420;BME280;6781;58.440;15.470;2023-09-18T10:42:03;101032.28;;;15.47;100.00
13420;BME280;6781;58.440;15.470;2023-09-18T10:44:32;101165.47;;;16.51;100.00
13420;BME280;6781;58.440;15.470;2023-09-18T10:47:02;100931.47;;;14.88;100.00
13420;BME280;6781;58.440;15.470;2023-09-18T10:49:31;101095.97;;;16.02;100.00
13420;BME280;6781;58.440;15.470;2023-09-18T10:51:59;101104.72;;;16.20;100.00
13420;BME280;6781;58.440;15.470;2023-09-18T10:54:27;101089.59;;;16.14;100.00
13420;BME280;6781;58.440;15.470;2023-09-18T10:56:55;101009.31;;;15.78;100.00
13420;BME280;6781;58.440;15.470;2023-09-18T10:59:23;101079.50;;;16.19;100.00
13420;BME280;6781;58.440;15.470;2023-09-18T11:01:50;101083.38;;;16.15;100.00
13420;BME280;6781;58.440;15.470;2023-09-18T11:04:21;101029.44;;;16.05;100.00
13420;BME280;6781;58.440;15.470;2023-09-18T11:07:04;100981.84;;;16.19;100.00
13420;BME280;6781;58.440;15.470;2023-09-18T11:09:39;100914.97;;;15.61;100.00
13420;BME280;6781;58.440;15.470;2023-09-18T11:12:08;101064.88;;;16.72;100.00
13420;BME280;6781;58.440;15.470;2023-09-18T11:14:47;101064.81;;;16.81;100.00
13420;BME280;6781;58.440;15.470;2023-09-18T11:17:32;101050.81;;;16.90;100.00
13420;BME280;6781;58.440;15.470;2023-09-18T11:20:06;101062.25;;;17.07;100.00
13420;BME280;6781;58.440;15.470;2023-09-18T11:22:38;101022.53;;;16.76;100.00
13420;BME280;6781;58.440;15.470;2023-09-18T11:25:31;101039.13;;;16.67;100.00
13420;BME280;6781;58.440;15.470;2023-09-18T11:28:01;100996.00;;;16.44;100.00
13420;BME280;6781;58.440;15.470;2023-09-18T11:30:29;100956.31;;;16.03;100.00
13420;BME280;6781;58.440;15.470;2023-09-18T11:32:56;101028.59;;;16.32;100.00
13420;BME280;6781;58.440;15.470;2023-09-18T11:35:25;101012.59;;;16.35;100.00
13420;BME280;6781;58.440;15.470;2023-09-18T11:38:06;100995.09;;;15.90;100.00
13420;BME280;6781;58.440;15.470;2023-09-18T11:40:35;101063.84;;;16.37;100.00
13420;BME280;6781;58.440;15.470;2023-09-18T11:43:26;100964.16;;;15.48;100.00
13420;BME280;6781;58.440;15.470;2023-09-18T11:45:56;101052.47;;;16.01;100.00
13420;BME280;6781;58.440;15.470;2023-09-18T11:48:24;100995.06;;;15.62;100.00
13420;BME280;6781;58.440;15.470;2023-09-18T11:50:56;101071.06;;;16.25;100.00
13420;BME280;6781;58.440;15.470;2023-09-18T11:53:24;101007.97;;;15.74;100.00
13420;BME280;6781;58.440;15.470;2023-09-18T11:55:51;101050.22;;;15.79;100.00
13420;BME280;6781;58.440;15.470;2023-09-18T11:58:18;100918.41;;;14.78;100.00
13420;BME280;6781;58.440;15.470;2023-09-18T12:00:49;101055.44;;;15.79;100.00
13420;BME280;6781;58.440;15.470;2023-09-18T12:03:17;101061.06;;;15.84;100.00
13420;BME280;6781;58.440;15.470;2023-09-18T12:05:59;101015.22;;;15.43;100.00
13420;BME280;6781;58.440;15.470;2023-09-18T12:08:29;101069.09;;;15.73;100.00
13420;BME280;6781;58.440;15.470;2023-09-18T12:10:56;101068.97;;;15.65;100.00
13420;BME280;6781;58.440;15.470;2023-09-18T12:13:25;101030.66;;;15.26;100.00
13420;BME280;6781;58.440;15.470;2023-09-18T12:15:56;100952.22;;;14.80;100.00
13420;BME280;6781;58.440;15.470;2023-09-18T12:18:27;101088.84;;;15.57;100.00
13420;BME280;6781;58.440;15.470;2023-09-18T12:20:55;101068.88;;;15.37;100.00
13420;BME280;6781;58.440;15.470;2023-09-18T12:23:25;101118.94;;;15.61;100.00
13420;BME280;6781;58.440;15.470;2023-09-18T12:25:58;101022.97;;;15.25;100.00
13420;BME280;6781;58.440;15.470;2023-09-18T12:28:26;101024.34;;;15.29;100.00
13420;BME280;6781;58.440;15.470;2023-09-18T12:30:54;101111.28;;;15.97;100.00
13420;BME280;6781;58.440;15.470;2023-09-18T12:33:22;101135.41;;;15.91;100.00
13420;BME280;6781;58.440;15.470;2023-09-18T12:35:49;101040.38;;;15.53;100.00
13420;BME280;6781;58.440;15.470;2023-09-18T12:38:17;101102.13;;;15.74;100.00
13420;BME280;6781;58.440;15.470;2023-09-18T12:40:51;101073.00;;;15.59;100.00
13420;BME280;6781;58.440;15.470;2023-09-18T12:43:20;101098.69;;;15.63;100.00
13420;BME280;6781;58.440;15.470;2023-09-18T12:45:49;101121.78;;;15.78;100.00
13420;BME280;6781;58.440;15.470;2023-09-18T12:48:17;101115.34;;;15.72;100.00
13420;BME280;6781;58.440;15.470;2023-09-18T12:50:45;101058.72;;;15.34;100.00
13420;BME280;6781;58.440;15.470;2023-09-18T12:53:13;101126.22;;;15.68;100.00
13420;BME280;6781;58.440;15.470;2023-09-18T12:55:41;101148.38;;;15.73;100.00